Wednesday, January 17, 2018, 4:31 PM EST
Back to Local

KFVE, Northern Aroostook Regional

Location: Saint Agatha, ME, United States Lat: 47.283
Local Time: 4:31 PM EST (21:31 GMT) Lon: -68.3
Time Zone: US/Eastern Elev: 987 ft

Show me the last for .
Show Coded

Time T Td Feel RH Dir Speed Gust Alt SLP Vis Weather Sky Remarks
2018-01-17 15:53 18 13 10 80 130° 6 - 30.08 30.14 10 FEW036 None
2018-01-17 14:53 18 13 10 80 140° 6 - 30.11 30.17 10 BKN037 None
2018-01-17 13:53 18 14 11 84 190° 5 - 30.13 30.19 10 CLR None
2018-01-17 12:53 14 11 5 87 140° 6 - 30.16 30.22 10 CLR 6-hr Precip Total (1pm): 0.00"
6-hr Min Temp (1pm): 3.0°F
6-hr Max Temp (1pm): 15.1°F
2018-01-17 11:53 12 10 3 91 160° 6 - 30.20 30.26 10 CLR None
2018-01-17 11:31 11 8 -1 87 150° 8 - 30.21 - 10 SCT017 None
2018-01-17 10:53 10 8 0 91 150° 6 - 30.25 30.31 10 OVC021 1-hr Precip Total: Trace
2018-01-17 10:05 8 6 -2 91 140° 6 - 30.27 - 6 -SN BR OVC021 1-hr Precip Total: Trace
2018-01-17 09:53 8 5 -2 86 140° 6 - 30.27 30.34 2 -SN BR BKN021 OVC028 1-hr Precip Total: Trace
6-hr Precip Total (10am): 0.00"
2018-01-17 09:29 8 5 -2 86 140° 6 - 30.27 - 2 -SN BR BKN020 OVC025 1-hr Precip Total: Trace
2018-01-17 09:13 7 4 -3 86 130° 6 - 30.28 - 1 -SN BR FEW013 BKN018 OVC026 1-hr Precip Total: Trace
2018-01-17 09:05 7 4 0 86 120° 3 - 30.28 - 2 -SN BR SCT013 BKN018 OVC026 1-hr Precip Total: Trace
2018-01-17 08:53 7 5 - 91 - Calm - 30.28 30.35 2 -SN BR BKN013 BKN025 OVC042 1-hr Precip Total: Trace
2018-01-17 08:50 7 3 - 84 - Calm - 30.28 - 2 -SN BR SCT009 BKN013 OVC039 1-hr Precip Total: Trace
2018-01-17 08:10 6 3 -3 86 130° 5 - 30.28 - 10 OVC010 None
2018-01-17 07:53 5 3 -2 91 90° 3 - 30.28 30.35 10 OVC008 None
2018-01-17 07:19 5 3 -4 91 100° 5 - 30.28 - 10 BKN008 BKN016 OVC048 None
2018-01-17 06:53 3 1 -6 91 100° 5 - 30.28 30.35 10 FEW009 BKN017 OVC050 6-hr Min Temp (7am): 1.9°F
6-hr Max Temp (7am): 5.0°F
2018-01-17 06:43 4 2 -8 91 150° 7 - 30.30 - 10 SCT009 BKN019 OVC055 None
2018-01-17 05:53 5 3 -2 91 110° 3 - 30.29 30.36 10 OVC019 None
2018-01-17 04:53 5 2 - 86 - Calm - 30.30 30.36 10 OVC020 None
2018-01-17 03:53 3 0 - 86 - Calm - 30.31 30.38 10 OVC022 None
2018-01-17 03:35 3 0 -8 86 130° 6 - 30.31 - 10 FEW010 OVC024 None
2018-01-17 02:53 4 1 -7 87 130° 6 - 30.31 30.37 10 OVC007 None
2018-01-17 01:53 3 1 -4 91 160° 3 - 30.31 30.38 10 OVC009 None
2018-01-17 01:23 3 0 - 86 - Calm - 30.31 - 10 OVC014 None
2018-01-17 00:53 3 1 -4 91 140° 3 - 30.30 30.37 10 OVC017 6-hr Min Temp (1am): 3.0°F
6-hr Max Temp (1am): 3.9°F
2018-01-16 23:53 4 1 - 87 - Calm - 30.31 30.38 10 OVC019 24-hr Min Temp (12am): -9.0°F
24-hr Max Temp (12am): 6.1°F
2018-01-16 22:53 4 1 -5 87 180° 5 - 30.33 30.40 10 OVC019 None
2018-01-16 22:27 3 0 -6 86 130° 5 - 30.33 - 10 BKN023 None
2018-01-16 22:09 3 0 -8 86 140° 6 - 30.33 - 10 SCT015 None
2018-01-16 21:53 4 1 -3 87 120° 3 - 30.33 30.41 10 BKN016 None
2018-01-16 20:53 4 1 -8 87 130° 7 - 30.34 30.42 10 OVC015 None
2018-01-16 19:53 4 1 -5 87 130° 5 - 30.35 30.43 10 OVC018 None
2018-01-16 19:03 3 0 -9 86 120° 7 - 30.36 - 10 BKN019 None
2018-01-16 18:53 3 0 -8 86 120° 6 - 30.36 30.44 10 SCT019 6-hr Precip Total (7pm): 0.00"
6-hr Min Temp (7pm): 3.0°F
6-hr Max Temp (7pm): 6.1°F
2018-01-16 17:53 5 2 -4 86 150° 5 - 30.35 30.43 10 CLR None
2018-01-16 16:53 5 1 -4 83 150° 5 - 30.35 30.42 10 FEW007 None
2018-01-16 16:48 5 1 -2 84 160° 3 - 30.34 - 10 FEW007 SCT013 None

Support USWX by starting your Amazon purchase here.